Terminal Aerodrome Forecast
Issued by NWS Paducah, KY

Home | Current Version | Previous Version | Text Only | Print | Product List | Glossary On
Versions: 1 2 3 4 5 6 7 8 9 10 11 12 13 14 15 16 17 18 19 20
000
FTUS43 KPAH 271138
TAFPAH
TAF
KPAH 271138Z 2712/2812 00000KT 5SM BR SKC
     FM271400 13003KT P6SM SCT010
     FM272000 17004KT P6SM VCTS BKN035CB
     FM280000 VRB03KT 6SM BR VCSH SCT050 BKN150 PROB30 2806/2812 TS
      BKN035CB=

USA.gov is the U.S. government's official web portal to all federal, state and local government web resources and services.